createdAt,value
2018-12-09T00:01:19.741Z,2.70
2018-12-09T00:03:47.627Z,1.97
2018-12-09T00:06:15.533Z,2.13
2018-12-09T00:08:43.422Z,2.00
2018-12-09T00:11:11.433Z,1.70
2018-12-09T00:13:39.250Z,1.50
2018-12-09T00:16:07.129Z,1.73
2018-12-09T00:18:35.048Z,1.30
2018-12-09T00:21:03.013Z,1.50
2018-12-09T00:23:30.852Z,1.20
2018-12-09T00:25:58.779Z,1.13
2018-12-09T00:28:26.659Z,1.10
2018-12-09T00:30:54.545Z,1.17
2018-12-09T00:33:22.392Z,1.13
2018-12-09T00:35:50.404Z,1.07
2018-12-09T00:38:18.228Z,1.00
2018-12-09T00:40:46.091Z,1.57
2018-12-09T00:43:13.991Z,1.13
2018-12-09T00:45:41.879Z,1.20
2018-12-09T00:48:09.775Z,1.37
2018-12-09T00:50:37.751Z,1.00
2018-12-09T00:53:05.695Z,1.20
2018-12-09T00:55:33.532Z,0.93
2018-12-09T00:58:01.394Z,0.80
2018-12-09T01:00:29.244Z,1.00
2018-12-09T01:02:57.143Z,1.33
2018-12-09T01:05:25.019Z,1.20
2018-12-09T01:07:52.863Z,1.80
2018-12-09T01:10:20.743Z,1.20
2018-12-09T01:12:48.598Z,1.40
2018-12-09T01:15:16.490Z,1.17
2018-12-09T01:17:44.379Z,1.40
2018-12-09T01:20:12.284Z,1.70
2018-12-09T01:22:40.152Z,1.80
2018-12-09T01:25:08.143Z,1.80
2018-12-09T01:27:36.433Z,2.07
2018-12-09T01:30:05.212Z,2.03
2018-12-09T01:32:33.246Z,1.80
2018-12-09T01:35:01.170Z,2.23
2018-12-09T01:37:29.064Z,1.90
2018-12-09T01:39:56.911Z,1.80
2018-12-09T01:42:24.880Z,1.80
2018-12-09T01:44:52.697Z,2.23
2018-12-09T01:47:20.555Z,2.07
2018-12-09T01:49:48.976Z,1.97
2018-12-09T01:52:16.961Z,1.90
2018-12-09T01:54:44.895Z,2.50
2018-12-09T01:57:12.767Z,2.23
2018-12-09T01:59:40.665Z,2.10
2018-12-09T02:02:08.580Z,2.53
2018-12-09T02:04:36.524Z,1.93
2018-12-09T02:07:04.382Z,2.43
2018-12-09T02:09:32.254Z,2.13
2018-12-09T02:12:00.346Z,2.10
2018-12-09T02:14:28.201Z,1.83
2018-12-09T02:16:56.067Z,2.17
2018-12-09T02:19:25.846Z,1.40
2018-12-09T02:21:53.874Z,1.50
2018-12-09T02:24:22.167Z,1.30
2018-12-09T02:26:50.108Z,1.20
2018-12-09T02:29:18.252Z,1.40
2018-12-09T02:31:46.090Z,2.07
2018-12-09T02:34:13.941Z,2.43
2018-12-09T02:36:41.876Z,1.63
2018-12-09T02:39:10.852Z,1.30
2018-12-09T02:41:38.679Z,1.20
2018-12-09T02:44:06.599Z,1.80
2018-12-09T02:46:34.849Z,1.40
2018-12-09T02:49:02.850Z,1.20
2018-12-09T02:51:31.090Z,1.10
2018-12-09T02:53:58.935Z,1.30
2018-12-09T02:56:26.781Z,1.30
2018-12-09T02:58:54.760Z,1.57
2018-12-09T03:01:22.579Z,0.90
2018-12-09T03:03:50.458Z,1.40
2018-12-09T03:06:18.310Z,1.63
2018-12-09T03:08:46.138Z,2.10
2018-12-09T03:11:13.982Z,1.37
2018-12-09T03:13:41.836Z,1.97
2018-12-09T03:16:09.742Z,1.90
2018-12-09T03:18:37.582Z,2.00
2018-12-09T03:21:05.407Z,1.87
2018-12-09T03:23:33.257Z,2.30
2018-12-09T03:26:01.132Z,1.77
2018-12-09T03:28:28.977Z,2.10
2018-12-09T03:30:56.844Z,1.90
2018-12-09T03:33:25.181Z,1.70
2018-12-09T03:35:53.178Z,2.37
2018-12-09T03:38:21.037Z,1.97
2018-12-09T03:40:48.939Z,2.07
2018-12-09T03:43:16.918Z,1.73
2018-12-09T03:45:44.978Z,2.00
2018-12-09T03:48:12.822Z,1.60
2018-12-09T03:50:40.683Z,2.13
2018-12-09T03:53:08.553Z,1.87
2018-12-09T03:55:36.415Z,2.00
2018-12-09T03:58:04.231Z,2.43
2018-12-09T04:00:32.077Z,2.37
2018-12-09T04:02:59.907Z,2.73
2018-12-09T04:05:27.795Z,2.53
2018-12-09T04:07:55.740Z,2.80
2018-12-09T04:10:23.578Z,2.40
2018-12-09T04:12:51.365Z,3.30
2018-12-09T04:15:19.317Z,3.03
2018-12-09T04:17:47.278Z,3.13
2018-12-09T04:20:15.168Z,3.80
2018-12-09T04:22:42.984Z,2.97
2018-12-09T04:25:10.857Z,3.27
2018-12-09T04:27:38.708Z,2.80
2018-12-09T04:30:06.997Z,3.33
2018-12-09T04:32:34.910Z,3.00
2018-12-09T04:35:02.943Z,3.37
2018-12-09T04:37:30.791Z,3.57
2018-12-09T04:39:58.604Z,3.10
2018-12-09T04:42:26.936Z,3.67
2018-12-09T04:44:54.843Z,2.87
2018-12-09T04:47:22.662Z,3.23
2018-12-09T04:49:50.607Z,2.80
2018-12-09T04:52:18.494Z,3.07
2018-12-09T04:54:46.328Z,4.63
2018-12-09T04:57:14.515Z,7.50
2018-12-09T04:59:47.761Z,4.83
2018-12-09T05:02:15.954Z,3.10
2018-12-09T05:04:43.894Z,3.07
2018-12-09T05:07:11.736Z,2.40
2018-12-09T05:09:39.719Z,2.70
2018-12-09T05:12:07.973Z,2.53
2018-12-09T05:14:35.938Z,2.27
2018-12-09T05:17:03.735Z,2.60
2018-12-09T05:19:31.599Z,2.40
2018-12-09T05:21:59.486Z,3.30
2018-12-09T05:24:27.347Z,2.50
2018-12-09T05:26:55.202Z,2.10
2018-12-09T05:29:23.068Z,1.97
2018-12-09T05:31:50.893Z,2.67
2018-12-09T05:34:18.777Z,2.50
2018-12-09T05:36:46.786Z,2.50
2018-12-09T05:39:14.633Z,2.27
2018-12-09T05:41:42.498Z,2.23
2018-12-09T05:44:10.323Z,2.40
2018-12-09T05:46:38.135Z,1.70
2018-12-09T05:49:06.190Z,1.80
2018-12-09T05:51:34.011Z,1.63
2018-12-09T05:54:01.853Z,0.90
2018-12-09T05:56:29.727Z,1.40
2018-12-09T05:58:57.642Z,1.30
2018-12-09T06:01:25.450Z,1.07
2018-12-09T06:03:53.302Z,0.93
2018-12-09T06:06:21.168Z,0.90
2018-12-09T06:08:49.085Z,1.30
2018-12-09T06:11:16.917Z,1.10
2018-12-09T06:13:44.798Z,0.90
2018-12-09T06:16:12.641Z,1.00
2018-12-09T06:18:40.477Z,0.80
2018-12-09T06:21:08.345Z,0.90
2018-12-09T06:23:36.188Z,0.80
2018-12-09T06:26:04.067Z,1.40
2018-12-09T06:28:31.890Z,0.60
2018-12-09T06:30:59.810Z,0.70
2018-12-09T06:33:27.787Z,0.60
2018-12-09T06:35:55.665Z,0.63
2018-12-09T06:38:23.530Z,0.70
2018-12-09T06:40:51.375Z,0.53
2018-12-09T06:43:19.201Z,0.60
2018-12-09T06:45:47.039Z,1.00
2018-12-09T06:48:14.974Z,0.73
2018-12-09T06:50:42.787Z,0.40
2018-12-09T06:53:10.634Z,0.67
2018-12-09T06:55:38.480Z,0.70
2018-12-09T06:58:06.393Z,0.60
2018-12-09T07:00:34.660Z,0.40
2018-12-09T07:03:02.563Z,0.67
2018-12-09T07:05:30.390Z,0.63
2018-12-09T07:07:58.240Z,0.40
2018-12-09T07:10:26.087Z,0.60
2018-12-09T07:12:54.003Z,0.60
2018-12-09T07:15:21.901Z,0.70
2018-12-09T07:17:49.779Z,0.60
2018-12-09T07:20:17.685Z,0.50
2018-12-09T07:22:45.523Z,0.60
2018-12-09T07:25:13.434Z,0.50
2018-12-09T07:27:41.286Z,0.80
2018-12-09T07:30:10.154Z,0.40
2018-12-09T07:32:38.038Z,0.50
2018-12-09T07:35:06.843Z,0.63
2018-12-09T07:37:34.714Z,0.30
2018-12-09T07:40:02.591Z,0.77
2018-12-09T07:42:32.036Z,0.70
2018-12-09T07:44:59.860Z,0.80
2018-12-09T07:47:27.734Z,0.47
2018-12-09T07:49:55.617Z,0.70
2018-12-09T07:52:23.472Z,0.80
2018-12-09T07:54:51.301Z,0.70
2018-12-09T07:57:19.152Z,0.67
2018-12-09T07:59:47.019Z,0.60
2018-12-09T08:02:14.979Z,0.80
2018-12-09T08:04:42.831Z,0.70
2018-12-09T08:07:10.683Z,0.50
2018-12-09T08:09:39.661Z,0.80
2018-12-09T08:12:07.511Z,0.63
2018-12-09T08:14:35.410Z,0.60
2018-12-09T08:17:04.027Z,0.50
2018-12-09T08:19:43.752Z,0.50
2018-12-09T08:22:11.609Z,0.70
2018-12-09T08:24:39.410Z,0.63
2018-12-09T08:27:07.360Z,0.90
2018-12-09T08:29:35.233Z,0.70
2018-12-09T08:32:03.332Z,0.80
2018-12-09T08:34:31.183Z,0.80
2018-12-09T08:36:59.069Z,1.07
2018-12-09T08:39:26.930Z,1.20
2018-12-09T08:41:54.813Z,0.80
2018-12-09T08:44:22.657Z,1.10
2018-12-09T08:46:50.614Z,0.90
2018-12-09T08:49:18.623Z,0.90
2018-12-09T08:52:06.539Z,1.23
2018-12-09T08:54:34.368Z,1.50
2018-12-09T08:57:02.201Z,0.90
2018-12-09T08:59:30.054Z,1.07
2018-12-09T09:01:57.941Z,0.90
2018-12-09T09:04:25.778Z,1.67
2018-12-09T09:06:53.734Z,0.80
2018-12-09T09:09:21.549Z,0.67
2018-12-09T09:11:49.429Z,0.90
2018-12-09T09:14:17.300Z,0.50
2018-12-09T09:16:45.228Z,0.90
2018-12-09T09:19:13.067Z,0.80
2018-12-09T09:21:40.936Z,1.10
2018-12-09T09:24:19.450Z,1.23
2018-12-09T09:26:47.399Z,0.77
2018-12-09T09:29:15.227Z,0.77
2018-12-09T09:31:43.065Z,0.70
2018-12-09T09:34:10.982Z,0.80
2018-12-09T09:36:43.369Z,0.70
2018-12-09T09:39:11.221Z,0.70
2018-12-09T09:41:39.045Z,0.80
2018-12-09T09:44:07.021Z,0.67
2018-12-09T09:46:41.378Z,0.80
2018-12-09T09:49:09.310Z,0.90
2018-12-09T09:51:37.157Z,1.17
2018-12-09T09:57:02.023Z,0.90
2018-12-09T09:59:29.862Z,0.97
2018-12-09T10:01:57.711Z,1.50
2018-12-09T10:04:25.743Z,1.30
2018-12-09T10:06:53.584Z,1.60
2018-12-09T10:09:21.461Z,1.30
2018-12-09T10:11:49.477Z,1.83
2018-12-09T10:14:17.356Z,1.30
2018-12-09T10:16:45.194Z,1.70
2018-12-09T10:19:27.076Z,1.43
2018-12-09T10:21:54.913Z,1.57
2018-12-09T10:24:36.299Z,1.77
2018-12-09T10:27:04.152Z,1.80
2018-12-09T10:29:32.060Z,1.53
2018-12-09T10:31:59.881Z,1.67
2018-12-09T10:34:27.693Z,1.73
2018-12-09T10:36:55.574Z,1.63
2018-12-09T10:39:23.423Z,2.50
2018-12-09T10:47:44.568Z,2.17
2018-12-09T10:50:12.499Z,1.60
2018-12-09T10:52:40.367Z,2.23
2018-12-09T10:55:08.454Z,1.83
2018-12-09T10:57:36.360Z,2.13
2018-12-09T11:00:26.213Z,1.80
2018-12-09T11:02:54.068Z,2.10
2018-12-09T11:05:21.887Z,1.80
2018-12-09T11:07:49.805Z,2.07
2018-12-09T11:10:17.697Z,2.57
2018-12-09T11:12:49.492Z,2.00
2018-12-09T11:15:17.403Z,2.10
2018-12-09T11:17:45.222Z,1.80
2018-12-09T11:20:13.229Z,1.70
2018-12-09T11:25:42.679Z,1.80
2018-12-09T11:28:10.550Z,2.67
2018-12-09T11:30:38.387Z,1.67
2018-12-09T11:33:06.319Z,1.70
2018-12-09T11:35:51.061Z,1.80
2018-12-09T11:38:18.923Z,2.10
2018-12-09T11:40:46.760Z,1.80
2018-12-09T11:46:08.138Z,1.83
2018-12-09T11:48:36.008Z,1.90
2018-12-09T11:51:03.943Z,1.73
2018-12-09T11:53:31.815Z,1.77
2018-12-09T11:55:59.671Z,1.70
2018-12-09T11:58:27.583Z,1.77
2018-12-09T12:00:59.751Z,1.83
2018-12-09T12:03:27.672Z,2.03
2018-12-09T12:05:55.549Z,2.03
2018-12-09T12:08:23.387Z,1.60
2018-12-09T12:10:51.370Z,1.80
2018-12-09T12:13:19.191Z,2.33
2018-12-09T12:15:47.060Z,2.10
2018-12-09T12:18:14.978Z,2.20
2018-12-09T12:20:42.860Z,1.97
2018-12-09T12:23:17.459Z,2.47
2018-12-09T12:25:57.722Z,1.90
2018-12-09T12:28:25.724Z,2.17
2018-12-09T12:30:53.670Z,1.83
2018-12-09T12:33:21.543Z,2.37
2018-12-09T12:35:49.431Z,1.83
2018-12-09T12:38:17.311Z,1.73
2018-12-09T12:40:45.265Z,1.60
2018-12-09T12:43:13.161Z,1.40
2018-12-09T12:45:41.253Z,1.70
2018-12-09T12:48:12.843Z,2.23
2018-12-09T12:50:40.791Z,1.47
2018-12-09T12:53:08.911Z,1.93
2018-12-09T12:55:36.775Z,1.43
2018-12-09T12:58:04.650Z,1.73
2018-12-09T13:00:32.524Z,2.10
2018-12-09T13:03:00.433Z,2.20
2018-12-09T13:05:28.308Z,1.57
2018-12-09T13:07:56.176Z,1.63
2018-12-09T13:10:24.082Z,1.80
2018-12-09T13:12:51.915Z,1.87
2018-12-09T13:15:19.780Z,1.90
2018-12-09T13:17:47.641Z,1.80
2018-12-09T13:20:15.705Z,1.87
2018-12-09T13:22:43.631Z,1.80
2018-12-09T13:25:11.778Z,2.30
2018-12-09T13:27:39.697Z,1.73
2018-12-09T13:30:08.629Z,1.70
2018-12-09T13:32:36.567Z,1.77
2018-12-09T13:35:04.573Z,2.00
2018-12-09T13:37:32.663Z,1.70
2018-12-09T13:40:00.567Z,2.07
2018-12-09T13:42:28.573Z,1.50
2018-12-09T13:44:56.492Z,1.60
2018-12-09T13:47:24.412Z,1.83
2018-12-09T13:49:52.338Z,1.80
2018-12-09T13:52:21.332Z,1.90
2018-12-09T13:54:49.204Z,1.60
2018-12-09T13:57:17.067Z,1.30
2018-12-09T13:59:45.046Z,1.70
2018-12-09T14:02:12.919Z,1.50
2018-12-09T14:04:41.017Z,1.33
2018-12-09T14:07:08.977Z,1.60
2018-12-09T14:09:36.834Z,1.50
2018-12-09T14:12:04.742Z,2.23
2018-12-09T14:14:32.626Z,1.67
2018-12-09T14:17:00.552Z,1.50
2018-12-09T14:19:28.488Z,1.47
2018-12-09T14:21:56.347Z,1.13
2018-12-09T14:24:24.342Z,1.40
2018-12-09T14:26:52.504Z,1.20
2018-12-09T14:29:20.392Z,1.30
2018-12-09T14:31:48.699Z,1.20
2018-12-09T14:34:16.587Z,1.30
2018-12-09T14:36:58.644Z,1.30
2018-12-09T14:39:42.514Z,1.10
2018-12-09T14:42:24.256Z,1.53
2018-12-09T14:44:52.120Z,1.00
2018-12-09T14:50:34.072Z,1.30
2018-12-09T14:56:05.303Z,1.23
2018-12-09T14:58:34.758Z,1.50
2018-12-09T15:01:03.009Z,1.13
2018-12-09T15:03:31.033Z,0.90
2018-12-09T15:05:59.603Z,1.03
2018-12-09T15:08:27.775Z,1.37
2018-12-09T15:10:55.801Z,1.10
2018-12-09T15:13:23.882Z,1.40
2018-12-09T15:15:51.997Z,2.73
2018-12-09T15:18:19.885Z,1.53
2018-12-09T15:20:47.767Z,1.70
2018-12-09T15:23:15.656Z,1.50
2018-12-09T15:25:43.532Z,1.70
2018-12-09T15:28:11.439Z,1.40
2018-12-09T15:30:39.379Z,1.00
2018-12-09T15:33:07.243Z,1.60
2018-12-09T15:35:35.139Z,1.40
2018-12-09T15:38:03.046Z,1.57
2018-12-09T15:40:30.903Z,1.43
2018-12-09T15:42:58.809Z,1.10
2018-12-09T15:45:26.692Z,1.53
2018-12-09T15:47:54.583Z,1.20
2018-12-09T15:50:22.460Z,1.50
2018-12-09T15:52:50.538Z,1.20
2018-12-09T15:55:18.480Z,1.90
2018-12-09T15:57:46.544Z,2.10
2018-12-09T16:00:14.399Z,1.60
2018-12-09T16:02:42.251Z,2.00
2018-12-09T16:05:10.348Z,1.90
2018-12-09T16:07:38.346Z,1.80
2018-12-09T16:10:09.019Z,1.53
2018-12-09T16:12:37.016Z,1.67
2018-12-09T16:15:05.804Z,1.70
2018-12-09T16:17:33.665Z,2.13
2018-12-09T16:20:02.155Z,1.50
2018-12-09T16:22:30.042Z,1.87
2018-12-09T16:25:07.891Z,2.00
2018-12-09T16:27:35.802Z,1.80
2018-12-09T16:30:04.265Z,2.27
2018-12-09T16:32:32.120Z,1.80
2018-12-09T16:35:00.052Z,1.73
2018-12-09T16:37:27.906Z,2.23
2018-12-09T16:39:55.815Z,1.87
2018-12-09T16:42:23.701Z,2.20
2018-12-09T16:44:51.581Z,2.00
2018-12-09T16:47:19.471Z,2.10
2018-12-09T16:49:47.372Z,2.53
2018-12-09T16:52:15.312Z,2.03
2018-12-09T16:54:43.281Z,2.07
2018-12-09T16:57:11.200Z,2.67
2018-12-09T16:59:39.116Z,2.70
2018-12-09T17:02:06.986Z,2.20
2018-12-09T17:04:34.834Z,2.47
2018-12-09T17:07:02.710Z,2.47
2018-12-09T17:09:30.741Z,2.33
2018-12-09T17:12:11.591Z,3.03
2018-12-09T17:14:45.418Z,2.73
2018-12-09T17:17:13.363Z,2.70
2018-12-09T17:19:41.328Z,3.20
2018-12-09T17:22:09.233Z,2.10
2018-12-09T17:24:37.097Z,2.83
2018-12-09T17:27:05.355Z,3.27
2018-12-09T17:29:33.195Z,2.73
2018-12-09T17:32:01.087Z,2.77
2018-12-09T17:34:28.958Z,2.90
2018-12-09T17:36:56.832Z,2.93
2018-12-09T17:39:24.752Z,4.23
2018-12-09T17:41:52.652Z,2.30
2018-12-09T17:44:20.522Z,2.60
2018-12-09T17:46:48.401Z,2.73
2018-12-09T17:49:16.270Z,3.03
2018-12-09T17:51:44.161Z,2.80
2018-12-09T17:54:12.055Z,2.87
2018-12-09T17:56:40.086Z,2.73
2018-12-09T17:59:07.964Z,2.43
2018-12-09T18:01:35.822Z,2.20
2018-12-09T18:04:03.739Z,2.20
2018-12-09T18:06:31.628Z,2.60
2018-12-09T18:08:59.519Z,2.10
2018-12-09T18:11:27.354Z,2.67
2018-12-09T18:13:55.231Z,2.30
2018-12-09T18:16:23.109Z,2.60
2018-12-09T18:18:50.976Z,2.23
2018-12-09T18:21:18.942Z,2.70
2018-12-09T18:23:46.815Z,3.20
2018-12-09T18:26:14.691Z,2.40
2018-12-09T18:28:42.577Z,3.00
2018-12-09T18:31:10.577Z,3.30
2018-12-09T18:33:38.571Z,3.00
2018-12-09T18:36:06.492Z,3.23
2018-12-09T18:38:34.926Z,3.27
2018-12-09T18:41:02.858Z,3.10
2018-12-09T18:43:30.761Z,3.03
2018-12-09T18:49:00.412Z,3.23
2018-12-09T18:51:28.316Z,3.63
2018-12-09T18:53:56.440Z,2.73
2018-12-09T18:56:24.374Z,2.80
2018-12-09T18:58:52.294Z,2.53
2018-12-09T19:01:20.226Z,4.17
2018-12-09T19:03:48.274Z,2.67
2018-12-09T19:06:16.176Z,3.20
2018-12-09T19:08:44.252Z,2.73
2018-12-09T19:11:12.193Z,3.77
2018-12-09T19:13:40.072Z,2.53
2018-12-09T19:16:08.008Z,2.50
2018-12-09T19:18:35.905Z,3.10
2018-12-09T19:21:03.854Z,3.37
2018-12-09T19:23:31.715Z,2.53
2018-12-09T19:25:59.595Z,2.67
2018-12-09T19:28:27.486Z,1.70
2018-12-09T19:30:55.373Z,2.10
2018-12-09T19:33:23.306Z,2.00
2018-12-09T19:35:51.178Z,2.40
2018-12-09T19:38:19.167Z,2.40
2018-12-09T19:40:47.025Z,2.63
2018-12-09T19:43:15.149Z,1.93
2018-12-09T19:45:43.050Z,2.10
2018-12-09T19:48:10.980Z,2.23
2018-12-09T19:50:38.942Z,1.93
2018-12-09T19:53:06.997Z,2.43
2018-12-09T19:55:34.975Z,2.07
2018-12-09T19:58:02.987Z,3.23
2018-12-09T20:00:30.911Z,2.37
2018-12-09T20:02:58.783Z,3.90
2018-12-09T20:05:26.671Z,3.50
2018-12-09T20:07:54.608Z,2.50
2018-12-09T20:10:22.564Z,2.63
2018-12-09T20:12:50.455Z,3.03
2018-12-09T20:15:18.380Z,3.43
2018-12-09T20:17:46.289Z,2.93
2018-12-09T20:20:14.272Z,2.63
2018-12-09T20:22:42.222Z,3.20
2018-12-09T20:25:10.184Z,2.73
2018-12-09T20:27:38.063Z,3.33
2018-12-09T20:30:08.040Z,3.13
2018-12-09T20:32:35.960Z,2.60
2018-12-09T20:35:03.917Z,2.47
2018-12-09T20:37:31.829Z,2.20
2018-12-09T20:39:59.759Z,2.57
2018-12-09T20:42:27.552Z,2.23
2018-12-09T20:44:55.392Z,2.20
2018-12-09T20:47:23.231Z,1.87
2018-12-09T20:49:52.578Z,2.53
2018-12-09T20:52:20.747Z,2.30
2018-12-09T20:54:48.626Z,2.97
2018-12-09T20:57:16.653Z,1.70
2018-12-09T20:59:44.544Z,2.07
2018-12-09T21:02:12.423Z,2.03
2018-12-09T21:04:40.493Z,2.03
2018-12-09T21:07:08.595Z,3.20
2018-12-09T21:09:36.475Z,2.10
2018-12-09T21:12:04.402Z,2.20
2018-12-09T21:14:32.301Z,2.43
2018-12-09T21:17:00.164Z,2.97
2018-12-09T21:19:28.018Z,2.10
2018-12-09T21:21:55.892Z,1.93
2018-12-09T21:24:25.892Z,1.93
2018-12-09T21:26:53.781Z,2.30
2018-12-09T21:29:21.611Z,1.83
2018-12-09T21:31:49.539Z,1.77
2018-12-09T21:34:18.256Z,2.40
2018-12-09T21:36:46.133Z,2.33
2018-12-09T21:39:13.974Z,2.20
2018-12-09T21:41:41.878Z,2.07
2018-12-09T21:44:10.424Z,2.30
2018-12-09T21:46:38.294Z,3.20
2018-12-09T21:49:06.173Z,2.37
2018-12-09T21:51:34.071Z,2.40
2018-12-09T21:54:01.947Z,4.07
2018-12-09T21:56:29.852Z,2.20
2018-12-09T21:58:57.740Z,2.20
2018-12-09T22:01:25.578Z,2.43
2018-12-09T22:03:53.495Z,2.53
2018-12-09T22:06:21.373Z,2.10
2018-12-09T22:08:49.305Z,2.83
2018-12-09T22:11:17.145Z,2.37
2018-12-09T22:13:45.450Z,2.60
2018-12-09T22:16:13.369Z,2.80
2018-12-09T22:18:41.239Z,2.07
2018-12-09T22:21:09.112Z,2.13
2018-12-09T22:23:37.011Z,2.27
2018-12-09T22:26:04.913Z,2.40
2018-12-09T22:28:32.812Z,2.47
2018-12-09T22:31:00.707Z,2.67
2018-12-09T22:33:28.561Z,2.50
2018-12-09T22:36:03.054Z,1.93
2018-12-09T22:38:30.886Z,2.60
2018-12-09T22:40:58.731Z,2.10
2018-12-09T22:43:26.624Z,2.23
2018-12-09T22:45:54.506Z,2.17
2018-12-09T22:48:22.351Z,2.33
2018-12-09T22:50:50.210Z,2.53
2018-12-09T22:53:18.074Z,2.70
2018-12-09T22:55:46.080Z,2.47
2018-12-09T22:58:13.951Z,2.27
2018-12-09T23:00:47.894Z,2.23
2018-12-09T23:03:15.755Z,2.00
2018-12-09T23:05:43.649Z,2.07
2018-12-09T23:08:11.683Z,2.40
2018-12-09T23:10:39.535Z,2.30
2018-12-09T23:13:07.428Z,2.27
2018-12-09T23:15:35.319Z,2.60
2018-12-09T23:18:03.195Z,2.30
2018-12-09T23:20:31.074Z,2.33
2018-12-09T23:22:58.932Z,2.43
2018-12-09T23:25:26.816Z,2.53
2018-12-09T23:27:54.735Z,1.80
2018-12-09T23:30:22.580Z,2.30
2018-12-09T23:32:50.475Z,2.50
2018-12-09T23:35:18.334Z,2.40
2018-12-09T23:37:46.211Z,2.00
2018-12-09T23:40:14.068Z,1.80
2018-12-09T23:42:41.955Z,2.20
2018-12-09T23:45:09.842Z,2.20
2018-12-09T23:47:37.722Z,2.57
2018-12-09T23:50:05.655Z,1.57
2018-12-09T23:52:33.522Z,1.93
2018-12-09T23:55:02.475Z,2.37
2018-12-09T23:57:30.414Z,1.73
2018-12-09T23:59:58.450Z,2.00
